Time;durP1;ratioP1;P1;durP2;ratioP2;P2;SDS_P1;SDS_P2;PMS_P1;PMS_P2;Temp;Humidity;BMP_temperature;BMP_pressure;BME280_temperature;BME280_humidity;BME280_pressure;Samples;Min_cycle;Max_cycle;Signal;HPM_P1;HPM_P2
2021/03/26 00:00:59;;;;;;;65.23;38.70;;;9.20;99.90;;;;;;5052991;28;21005;-88
2021/03/26 00:03:28;;;;;;;64.73;37.87;;;9.20;99.90;;;;;;5053429;28;20892;-88
2021/03/26 00:05:57;;;;;;;68.73;39.87;;;9.10;99.90;;;;;;5052972;28;20448;-88
2021/03/26 00:08:24;;;;;;;78.73;42.10;;;9.00;99.90;;;;;;5053161;28;20476;-88
2021/03/26 00:10:50;;;;;;;93.40;47.40;;;9.00;99.90;;;;;;5053125;28;20463;-88
2021/03/26 00:13:16;;;;;;;86.90;44.17;;;9.00;99.90;;;;;;5053224;28;20444;-87
2021/03/26 00:15:43;;;;;;;75.03;41.13;;;8.90;99.90;;;;;;5052945;28;20800;-87
2021/03/26 00:18:09;;;;;;;88.70;44.63;;;8.80;99.90;;;;;;5052967;28;20539;-88
2021/03/26 00:20:36;;;;;;;82.87;43.90;;;8.70;99.90;;;;;;5053279;28;20476;-89
2021/03/26 00:23:03;;;;;;;83.73;44.27;;;8.70;99.90;;;;;;5052765;28;20448;-89
2021/03/26 00:25:30;;;;;;;79.47;42.60;;;8.60;99.90;;;;;;5053161;28;20456;-91
2021/03/26 00:27:56;;;;;;;84.90;43.60;;;8.50;99.90;;;;;;5052954;28;20773;-91
2021/03/26 00:30:23;;;;;;;73.93;40.47;;;8.50;99.90;;;;;;5052812;28;20449;-92
2021/03/26 00:32:50;;;;;;;75.00;38.23;;;8.50;99.90;;;;;;5052643;28;20453;-89
2021/03/26 00:35:18;;;;;;;60.50;37.63;;;8.40;99.90;;;;;;5052837;28;20493;-90
2021/03/26 00:37:44;;;;;;;64.03;37.23;;;8.40;99.90;;;;;;5053223;28;20536;-90
2021/03/26 00:40:14;;;;;;;63.27;36.60;;;8.30;99.90;;;;;;5051369;28;20479;-90
2021/03/26 00:42:41;;;;;;;83.10;44.40;;;8.30;99.90;;;;;;5048781;28;20456;-90
2021/03/26 00:45:10;;;;;;;83.53;43.80;;;8.30;99.90;;;;;;5051890;28;20483;-87
2021/03/26 00:47:36;;;;;;;62.17;37.10;;;8.20;99.90;;;;;;5052580;28;20449;-88
2021/03/26 00:50:05;;;;;;;65.37;37.57;;;8.20;99.90;;;;;;5052539;28;20483;-87
2021/03/26 00:52:31;;;;;;;64.10;38.20;;;8.20;99.90;;;;;;5052845;28;21006;-88
2021/03/26 00:54:57;;;;;;;67.47;41.60;;;8.20;99.90;;;;;;5052175;28;20472;-88
2021/03/26 00:57:23;;;;;;;58.87;38.67;;;8.10;99.90;;;;;;5052513;28;20448;-88
2021/03/26 00:59:50;;;;;;;69.27;38.60;;;8.10;99.90;;;;;;5052208;28;20510;-88
2021/03/26 01:02:16;;;;;;;68.47;38.70;;;8.10;99.90;;;;;;5052780;28;20778;-90
2021/03/26 01:04:42;;;;;;;68.73;39.00;;;8.00;99.90;;;;;;5052848;28;20480;-90
2021/03/26 01:07:08;;;;;;;62.03;37.40;;;8.00;99.90;;;;;;5051232;28;20555;-91
2021/03/26 01:09:34;;;;;;;59.23;36.20;;;8.00;99.90;;;;;;5052555;28;20458;-89
2021/03/26 01:12:01;;;;;;;58.00;36.10;;;7.90;99.90;;;;;;5053288;28;20472;-94
2021/03/26 01:14:27;;;;;;;56.67;34.07;;;8.00;99.90;;;;;;5054487;28;20453;-94
2021/03/26 01:16:54;;;;;;;53.50;35.73;;;7.90;99.90;;;;;;5056744;28;20996;-84
2021/03/26 01:19:23;;;;;;;64.97;37.53;;;7.90;99.90;;;;;;5058555;28;20942;-93
2021/03/26 01:21:49;;;;;;;57.57;36.30;;;7.90;99.90;;;;;;5057851;28;20930;-93
2021/03/26 01:24:17;;;;;;;56.90;36.00;;;7.90;99.90;;;;;;5058552;28;20448;-93
2021/03/26 01:26:44;;;;;;;59.35;35.92;;;7.80;99.90;;;;;;5056914;28;20777;-92
2021/03/26 01:29:11;;;;;;;54.33;34.45;;;7.80;99.90;;;;;;5056558;28;20218;-92
2021/03/26 01:31:38;;;;;;;48.78;32.22;;;7.90;99.90;;;;;;5056873;28;20185;-94
2021/03/26 01:34:06;;;;;;;57.23;34.83;;;7.90;99.90;;;;;;5056610;28;20668;-94
2021/03/26 01:36:34;;;;;;;54.63;34.30;;;7.90;99.90;;;;;;5057253;28;20479;-94
2021/03/26 01:39:00;;;;;;;54.23;34.17;;;7.90;99.90;;;;;;5056486;28;20935;-94
2021/03/26 01:41:35;;;;;;;56.50;34.47;;;8.00;99.90;;;;;;5057090;28;20491;-95
2021/03/26 01:44:02;;;;;;;56.17;34.50;;;8.00;99.90;;;;;;5056504;28;20448;-94
2021/03/26 01:46:28;;;;;;;58.10;35.80;;;8.10;99.90;;;;;;5058845;28;20476;-95
2021/03/26 01:48:57;;;;;;;54.03;35.10;;;8.10;99.90;;;;;;5056058;28;20190;-93
2021/03/26 01:51:27;;;;;;;54.50;34.70;;;8.20;99.90;;;;;;5056744;28;20490;-93
2021/03/26 01:53:53;;;;;;;60.87;36.50;;;8.30;99.90;;;;;;5055925;28;20451;-92
2021/03/26 01:56:20;;;;;;;57.47;34.90;;;8.30;99.90;;;;;;5056081;28;20498;-92
2021/03/26 01:58:46;;;;;;;49.20;32.07;;;8.30;99.90;;;;;;5055887;28;20970;-91
2021/03/26 02:01:15;;;;;;;51.58;34.40;;;8.40;99.90;;;;;;5055976;28;20467;-92
2021/03/26 02:03:44;;;;;;;57.50;34.67;;;8.40;99.90;;;;;;5055702;28;20212;-92
2021/03/26 02:06:16;;;;;;;49.53;32.33;;;8.50;99.90;;;;;;5056109;28;20495;-92
2021/03/26 02:08:43;;;;;;;50.07;33.43;;;8.50;99.90;;;;;;5055793;28;20521;-91
2021/03/26 02:11:18;;;;;;;56.90;33.87;;;8.50;99.90;;;;;;5055767;28;20449;-91
2021/03/26 02:13:44;;;;;;;50.03;32.23;;;8.50;99.90;;;;;;5056089;28;20562;-91
2021/03/26 02:16:12;;;;;;;52.23;33.77;;;8.60;99.90;;;;;;5055252;28;20487;-92
2021/03/26 02:18:41;;;;;;;57.50;35.37;;;8.60;99.90;;;;;;5051754;28;20455;-93
2021/03/26 02:21:11;;;;;;;47.70;34.07;;;8.60;99.90;;;;;;5055677;28;20479;-91
2021/03/26 02:23:40;;;;;;;51.60;36.07;;;8.70;99.90;;;;;;5055501;28;20942;-91
2021/03/26 02:26:11;;;;;;;53.37;34.50;;;8.70;99.90;;;;;;5055426;28;20476;-88
2021/03/26 02:28:38;;;;;;;54.40;35.00;;;8.70;99.90;;;;;;5055260;28;20448;-88
2021/03/26 02:31:04;;;;;;;54.93;36.20;;;8.70;99.90;;;;;;5058890;28;20461;-94
2021/03/26 02:33:30;;;;;;;51.97;34.80;;;8.70;99.90;;;;;;5056633;28;20445;-91
2021/03/26 02:36:34;;;;;;;58.10;37.20;;;8.70;99.90;;;;;;5055455;28;20453;-91
2021/03/26 02:39:09;;;;;;;54.50;35.60;;;8.70;99.90;;;;;;5055218;28;20452;-92
2021/03/26 02:41:39;;;;;;;54.63;34.90;;;8.60;99.90;;;;;;5055420;28;20930;-89
2021/03/26 02:44:16;;;;;;;52.87;35.40;;;8.50;99.90;;;;;;5055321;28;20440;-89
2021/03/26 02:46:51;;;;;;;51.13;34.60;;;8.50;99.90;;;;;;5055326;28;20490;-89
2021/03/26 02:49:23;;;;;;;60.03;36.60;;;8.50;99.90;;;;;;5039779;28;20465;-89
2021/03/26 02:51:52;;;;;;;55.53;38.17;;;8.50;99.90;;;;;;5055031;28;20456;-89
2021/03/26 02:54:23;;;;;;;66.40;39.83;;;8.50;99.90;;;;;;5055174;28;20480;-90
2021/03/26 02:56:54;;;;;;;56.67;37.20;;;8.40;99.90;;;;;;5054993;28;20947;-89
2021/03/26 02:59:24;;;;;;;55.50;35.93;;;8.30;99.90;;;;;;5055320;28;20551;-89
2021/03/26 03:01:52;;;;;;;61.47;38.70;;;8.20;99.90;;;;;;5054882;28;20472;-90
2021/03/26 03:04:24;;;;;;;65.23;40.73;;;8.10;99.90;;;;;;5054775;28;20531;-90
2021/03/26 03:06:53;;;;;;;58.73;38.33;;;8.10;99.90;;;;;;5054182;28;20918;-89
2021/03/26 03:09:24;;;;;;;60.63;39.40;;;8.00;99.90;;;;;;5055143;28;20502;-89
2021/03/26 03:11:55;;;;;;;64.07;40.90;;;8.00;99.90;;;;;;5054368;28;20487;-90
2021/03/26 03:14:27;;;;;;;66.20;41.70;;;7.90;99.90;;;;;;5054870;28;20447;-89
2021/03/26 03:16:58;;;;;;;66.23;41.10;;;8.00;99.90;;;;;;5054395;28;20479;-89
2021/03/26 03:19:34;;;;;;;66.90;41.57;;;8.00;99.90;;;;;;5054510;28;20468;-94
2021/03/26 03:22:06;;;;;;;73.87;43.43;;;8.00;99.90;;;;;;5055711;28;20467;-94
2021/03/26 03:24:37;;;;;;;70.10;42.50;;;8.00;99.90;;;;;;5055552;28;20514;-94
2021/03/26 03:27:19;;;;;;;68.77;40.70;;;8.10;99.90;;;;;;5053264;28;20485;-95
2021/03/26 03:29:51;;;;;;;74.80;42.30;;;8.10;99.90;;;;;;5056062;28;20575;-94
2021/03/26 03:32:23;;;;;;;78.23;41.23;;;8.10;99.90;;;;;;5055948;28;20452;-94
2021/03/26 03:34:58;;;;;;;69.60;41.00;;;8.20;99.90;;;;;;5055469;28;20536;-95
2021/03/26 03:37:30;;;;;;;66.05;41.78;;;8.20;99.90;;;;;;5054365;28;20527;-95
2021/03/26 03:40:08;;;;;;;70.33;39.23;;;8.20;99.90;;;;;;5053967;28;20210;-96
2021/03/26 03:42:45;;;;;;;66.20;39.80;;;8.20;99.90;;;;;;5055060;28;20472;-96
2021/03/26 03:45:18;;;;;;;60.27;39.40;;;8.20;99.90;;;;;;5037972;28;20440;-96
2021/03/26 03:47:50;;;;;;;64.18;39.03;;;8.30;99.90;;;;;;5054343;28;20535;-96
2021/03/26 03:50:22;;;;;;;77.60;44.40;;;8.30;99.90;;;;;;5055291;28;20637;-95
2021/03/26 03:52:55;;;;;;;84.47;45.13;;;8.30;99.90;;;;;;5055204;28;20811;-93
2021/03/26 03:55:27;;;;;;;71.30;41.13;;;8.40;99.90;;;;;;5053881;28;20496;-93
2021/03/26 03:58:01;;;;;;;70.33;39.90;;;8.30;99.90;;;;;;5053524;28;20449;-93
2021/03/26 04:00:32;;;;;;;66.50;37.37;;;8.40;99.90;;;;;;5052334;28;20503;-89
2021/03/26 04:03:06;;;;;;;58.20;38.80;;;8.40;99.90;;;;;;5053633;28;20483;-89
2021/03/26 04:05:37;;;;;;;61.73;37.97;;;8.40;99.90;;;;;;5053529;28;20938;-90
2021/03/26 04:08:08;;;;;;;65.40;39.57;;;8.40;99.90;;;;;;5053589;28;20554;-90
2021/03/26 04:10:40;;;;;;;59.43;36.27;;;8.50;99.90;;;;;;5053535;28;20484;-92
2021/03/26 04:13:09;;;;;;;62.37;38.07;;;8.50;99.90;;;;;;5053292;28;20452;-91
2021/03/26 04:15:39;;;;;;;68.33;40.17;;;8.50;99.90;;;;;;5053615;28;20484;-89
2021/03/26 04:18:08;;;;;;;71.50;41.20;;;8.60;99.90;;;;;;5053305;28;20472;-91
2021/03/26 04:20:40;;;;;;;68.10;39.63;;;8.60;99.90;;;;;;5053358;28;20688;-92
2021/03/26 04:23:13;;;;;;;61.23;38.83;;;8.60;99.90;;;;;;5053200;28;20444;-91
2021/03/26 04:25:46;;;;;;;56.90;36.33;;;8.60;99.90;;;;;;5053140;28;20467;-92
2021/03/26 04:28:15;;;;;;;60.17;38.40;;;8.50;99.90;;;;;;5052826;28;20445;-91
2021/03/26 04:30:47;;;;;;;67.10;39.40;;;8.60;99.90;;;;;;5053622;28;20483;-94
2021/03/26 04:33:14;;;;;;;54.70;35.40;;;8.60;99.90;;;;;;5037431;28;20476;-93
2021/03/26 04:35:40;;;;;;;54.80;35.67;;;8.60;99.90;;;;;;5053525;28;20539;-92
2021/03/26 04:38:11;;;;;;;53.87;35.17;;;8.60;99.90;;;;;;5053184;28;20445;-93
2021/03/26 04:40:39;;;;;;;60.53;40.17;;;8.70;99.90;;;;;;5049159;28;20888;-93
2021/03/26 04:43:18;;;;;;;65.23;40.30;;;8.70;99.90;;;;;;5052956;28;20543;-92
2021/03/26 04:45:48;;;;;;;57.40;37.60;;;8.70;99.90;;;;;;5053477;28;20444;-93
2021/03/26 04:48:22;;;;;;;61.23;37.67;;;8.70;99.90;;;;;;5052772;28;20850;-92
2021/03/26 04:50:58;;;;;;;63.37;37.97;;;8.60;99.90;;;;;;5053350;28;20446;-90
2021/03/26 04:53:28;;;;;;;61.23;37.87;;;8.70;99.90;;;;;;5052765;28;20969;-90
2021/03/26 04:55:59;;;;;;;59.03;36.87;;;8.70;99.90;;;;;;5052541;28;20475;-90
2021/03/26 04:58:29;;;;;;;58.37;37.10;;;8.80;99.90;;;;;;5052911;28;20536;-90
2021/03/26 05:01:00;;;;;;;56.60;37.27;;;8.80;99.90;;;;;;5052924;28;20480;-90
2021/03/26 05:03:32;;;;;;;57.83;37.70;;;8.90;99.90;;;;;;5053308;28;20479;-91
2021/03/26 05:06:05;;;;;;;57.50;37.23;;;8.90;99.90;;;;;;5053161;28;20448;-91
2021/03/26 05:08:33;;;;;;;58.80;35.87;;;8.90;99.90;;;;;;5050631;28;20456;-93
2021/03/26 05:11:02;;;;;;;55.53;37.87;;;8.90;99.90;;;;;;5051882;28;20534;-96
2021/03/26 05:13:33;;;;;;;55.03;35.77;;;9.00;99.90;;;;;;5052230;28;20508;-88
2021/03/26 05:16:04;;;;;;;55.50;36.37;;;9.00;99.90;;;;;;5049792;28;20887;-88
2021/03/26 05:18:38;;;;;;;45.67;33.53;;;9.10;99.90;;;;;;5052393;28;20838;-90
2021/03/26 05:21:08;;;;;;;50.10;33.73;;;9.10;99.90;;;;;;5051079;28;20529;-90
2021/03/26 05:23:39;;;;;;;49.53;31.90;;;9.20;99.90;;;;;;5051625;28;20502;-90
2021/03/26 05:26:06;;;;;;;54.23;32.97;;;9.30;99.90;;;;;;5047629;28;20451;-88
2021/03/26 05:28:37;;;;;;;61.10;37.97;;;9.30;99.90;;;;;;5038595;28;20441;-90
2021/03/26 05:31:10;;;;;;;54.60;35.53;;;9.20;99.90;;;;;;5048482;28;20459;-84
2021/03/26 05:33:39;;;;;;;54.60;33.33;;;9.30;99.90;;;;;;5050863;28;20946;-94
2021/03/26 05:36:10;;;;;;;48.67;33.30;;;9.30;99.90;;;;;;5049556;28;21010;-89
2021/03/26 05:38:40;;;;;;;57.47;34.23;;;9.30;99.90;;;;;;5048424;28;20935;-90
2021/03/26 05:41:24;;;;;;;48.67;32.03;;;9.20;99.90;;;;;;5052147;28;20522;-90
2021/03/26 05:44:28;;;;;;;55.90;34.20;;;9.20;99.90;;;;;;5052670;28;20448;-90
2021/03/26 05:47:06;;;;;;;55.50;31.60;;;9.30;99.90;;;;;;4992121;28;20613;-94
2021/03/26 05:49:45;;;;;;;48.20;32.60;;;9.20;99.90;;;;;;5040886;28;20461;-95
2021/03/26 05:52:36;;;;;;;70.33;45.23;;;9.20;99.90;;;;;;5045279;28;20456;-93
2021/03/26 05:55:18;;;;;;;59.63;35.83;;;9.20;99.90;;;;;;5050497;28;20476;-93
2021/03/26 05:57:53;;;;;;;52.80;35.43;;;9.20;99.90;;;;;;5050867;28;20452;-93
2021/03/26 06:00:39;;;;;;;52.07;34.67;;;9.20;99.90;;;;;;5052099;28;20815;-91
2021/03/26 06:03:36;;;;;;;55.43;36.17;;;9.20;99.90;;;;;;5056412;28;20539;-92
2021/03/26 06:06:34;;;;;;;55.30;35.90;;;9.10;99.90;;;;;;5044511;28;20449;-92
2021/03/26 06:09:15;;;;;;;66.50;37.67;;;9.10;99.90;;;;;;5056556;28;20448;-92
2021/03/26 06:12:04;;;;;;;58.13;35.00;;;9.20;99.90;;;;;;5056509;28;20927;-93
2021/03/26 06:15:08;;;;;;;53.47;36.13;;;9.00;99.90;;;;;;5056535;28;20858;-90
2021/03/26 06:18:09;;;;;;;58.33;34.27;;;9.10;99.90;;;;;;5048101;28;20440;-89
2021/03/26 06:20:52;;;;;;;60.73;37.30;;;9.00;99.90;;;;;;5055919;28;20994;-90
2021/03/26 06:23:54;;;;;;;57.03;37.00;;;8.90;99.90;;;;;;5041265;28;20532;-91
2021/03/26 06:26:42;;;;;;;57.83;37.37;;;8.90;99.90;;;;;;5056308;28;20448;-91
2021/03/26 06:29:20;;;;;;;79.17;39.10;;;8.80;99.90;;;;;;5046445;28;20494;-90
2021/03/26 06:32:21;;;;;;;63.40;37.07;;;8.80;99.90;;;;;;5055783;28;20449;-92
2021/03/26 06:35:26;;;;;;;63.83;38.72;;;8.70;99.90;;;;;;5056161;28;20448;-92
2021/03/26 06:38:30;;;;;;;63.17;38.37;;;8.80;99.90;;;;;;5053221;28;20193;-92
2021/03/26 06:41:10;;;;;;;65.53;40.70;;;8.80;99.90;;;;;;4993861;28;20456;-92
2021/03/26 06:44:11;;;;;;;62.40;39.27;;;8.80;99.90;;;;;;5006013;28;20275;-92
2021/03/26 06:46:46;;;;;;;64.23;38.90;;;8.90;99.90;;;;;;5056155;28;20452;-92
2021/03/26 06:49:24;;;;;;;62.77;39.33;;;9.00;99.90;;;;;;5039868;28;20455;-93
2021/03/26 06:52:16;;;;;;;58.00;38.43;;;9.00;99.90;;;;;;5055859;28;20440;-93
2021/03/26 06:55:16;;;;;;;63.07;39.90;;;9.10;99.90;;;;;;5055494;28;20475;-92
2021/03/26 06:58:06;;;;;;;59.43;38.43;;;9.10;99.90;;;;;;5035112;28;20476;-92
2021/03/26 07:00:49;;;;;;;64.90;38.70;;;9.20;99.90;;;;;;5052254;28;20503;-93
2021/03/26 07:03:54;;;;;;;56.73;38.27;;;9.20;99.90;;;;;;5045141;28;20483;-93
2021/03/26 07:06:55;;;;;;;64.50;38.23;;;9.30;99.90;;;;;;5054915;28;20455;-87
2021/03/26 07:09:48;;;;;;;57.77;37.50;;;9.30;99.90;;;;;;5040084;28;20945;-87
2021/03/26 07:12:40;;;;;;;62.67;39.07;;;9.50;99.90;;;;;;5053968;28;20444;-93
2021/03/26 07:15:09;;;;;;;55.40;35.30;;;9.60;99.90;;;;;;5055320;28;20452;-94
2021/03/26 07:18:05;;;;;;;65.47;38.07;;;9.70;99.90;;;;;;5055765;28;20440;-94
2021/03/26 07:21:00;;;;;;;55.47;37.60;;;9.90;99.90;;;;;;5055109;28;20483;-94
2021/03/26 07:23:59;;;;;;;53.43;35.57;;;10.10;99.90;;;;;;5040542;28;20455;-89
2021/03/26 07:26:37;;;;;;;48.90;33.47;;;10.40;99.90;;;;;;5054717;28;20482;-88
2021/03/26 07:32:28;;;;;;;52.50;36.30;;;11.00;99.90;;;;;;5054580;28;20795;-95
2021/03/26 07:35:13;;;;;;;50.47;36.63;;;11.30;99.90;;;;;;5055174;28;20448;-95
2021/03/26 07:37:54;;;;;;;50.27;36.87;;;11.40;99.90;;;;;;5056361;28;20806;-94
2021/03/26 07:40:44;;;;;;;57.67;38.10;;;11.60;99.90;;;;;;5055010;28;20480;-93
2021/03/26 07:43:26;;;;;;;53.30;34.67;;;11.80;99.90;;;;;;5054952;28;20461;-92
2021/03/26 07:46:16;;;;;;;49.63;34.53;;;11.90;99.90;;;;;;5054510;28;20478;-93
2021/03/26 07:49:05;;;;;;;48.23;34.57;;;12.00;99.90;;;;;;5054661;28;20906;-89
2021/03/26 07:51:36;;;;;;;40.10;29.83;;;12.20;99.90;;;;;;5041852;28;20553;-89
2021/03/26 07:54:16;;;;;;;50.00;35.23;;;12.40;99.90;;;;;;5039266;28;20485;-89
2021/03/26 07:57:23;;;;;;;57.17;36.67;;;12.60;99.90;;;;;;5050062;28;20506;-92
2021/03/26 08:00:18;;;;;;;50.67;35.10;;;12.70;99.90;;;;;;4985759;28;20475;-92
2021/03/26 08:03:03;;;;;;;49.27;33.67;;;12.60;99.90;;;;;;5047572;28;20535;-93
2021/03/26 08:05:35;;;;;;;53.00;37.13;;;12.70;99.90;;;;;;5040377;28;20476;-93
2021/03/26 08:08:33;;;;;;;46.40;33.43;;;12.60;99.90;;;;;;5054191;28;20455;-91
2021/03/26 08:11:10;;;;;;;51.73;35.77;;;12.70;99.90;;;;;;5053950;28;20939;-89
2021/03/26 08:14:16;;;;;;;50.77;34.20;;;12.70;99.90;;;;;;5053978;28;20444;-91
2021/03/26 08:17:00;;;;;;;51.30;34.10;;;12.70;99.90;;;;;;5045518;28;20449;-92
2021/03/26 08:19:36;;;;;;;50.17;34.57;;;12.60;99.90;;;;;;5039875;28;20480;-91
2021/03/26 08:22:16;;;;;;;51.03;35.90;;;12.60;99.90;;;;;;5053543;28;20460;-91
2021/03/26 08:24:58;;;;;;;53.70;36.80;;;12.70;99.90;;;;;;5053742;28;20452;-91
2021/03/26 08:27:38;;;;;;;52.50;34.20;;;12.80;99.90;;;;;;5039104;28;20448;-96
2021/03/26 08:30:30;;;;;;;51.90;36.77;;;13.00;99.90;;;;;;5056229;28;20503;-96
2021/03/26 08:33:07;;;;;;;55.47;37.37;;;13.20;99.90;;;;;;5055482;28;20445;-96
2021/03/26 08:35:58;;;;;;;48.17;32.87;;;13.40;99.90;;;;;;5055964;28;20478;-96
2021/03/26 08:38:37;;;;;;;53.67;35.03;;;13.60;99.90;;;;;;5054526;28;20448;-96
2021/03/26 08:41:09;;;;;;;53.73;37.60;;;13.60;99.90;;;;;;5054974;28;21025;-96
2021/03/26 08:43:37;;;;;;;50.30;34.50;;;13.70;99.90;;;;;;5055300;28;20444;-95
2021/03/26 08:46:09;;;;;;;48.80;34.67;;;13.80;99.90;;;;;;5054051;28;20451;-92
2021/03/26 08:48:43;;;;;;;49.83;36.27;;;13.80;99.90;;;;;;5052989;28;20471;-91
2021/03/26 08:51:21;;;;;;;53.00;34.40;;;13.90;99.90;;;;;;5053174;28;20444;-88
2021/03/26 08:53:54;;;;;;;49.87;34.83;;;13.90;99.90;;;;;;5052718;28;20444;-89
2021/03/26 08:56:37;;;;;;;55.13;37.80;;;13.80;99.90;;;;;;5053307;28;20478;-89
2021/03/26 08:59:38;;;;;;;54.67;35.23;;;13.80;99.90;;;;;;5049480;28;20441;-89
2021/03/26 09:02:50;;;;;;;49.30;33.97;;;13.60;99.90;;;;;;5053146;28;20501;-89
2021/03/26 09:05:53;;;;;;;50.87;35.27;;;13.70;99.90;;;;;;5037621;28;20449;-93
2021/03/26 09:08:32;;;;;;;57.57;36.03;;;13.70;99.90;;;;;;5051406;28;20819;-89
2021/03/26 09:11:40;;;;;;;52.40;34.00;;;13.70;99.90;;;;;;5052499;28;20570;-79
2021/03/26 09:14:36;;;;;;;49.80;34.17;;;13.70;99.90;;;;;;5052085;28;20535;-78
2021/03/26 09:17:12;;;;;;;48.40;33.83;;;13.70;99.90;;;;;;5038211;28;20449;-79
2021/03/26 09:19:50;;;;;;;46.33;31.10;;;13.80;99.90;;;;;;5039648;28;20467;-78
2021/03/26 09:22:43;;;;;;;48.47;30.47;;;13.80;99.90;;;;;;5052364;28;20555;-78
2021/03/26 09:25:28;;;;;;;47.73;33.27;;;13.80;99.90;;;;;;5041873;28;20449;-78
2021/03/26 09:27:58;;;;;;;44.23;30.53;;;13.80;99.90;;;;;;5052230;28;20502;-78
2021/03/26 09:30:27;;;;;;;41.13;29.10;;;13.90;99.90;;;;;;5052039;28;20452;-78
2021/03/26 09:32:57;;;;;;;45.17;30.33;;;13.90;99.90;;;;;;5052136;28;20519;-78
2021/03/26 09:35:28;;;;;;;46.37;29.73;;;14.00;99.90;;;;;;5054575;28;20491;-78
2021/03/26 09:37:59;;;;;;;37.73;28.03;;;14.00;99.90;;;;;;5056163;28;20508;-78
2021/03/26 09:40:37;;;;;;;41.13;28.33;;;14.00;99.90;;;;;;5055850;28;20476;-78
2021/03/26 09:43:14;;;;;;;35.37;25.80;;;14.10;99.90;;;;;;5055912;28;20487;-78
2021/03/26 09:45:46;;;;;;;33.17;24.07;;;14.10;99.90;;;;;;5056188;28;20440;-78
2021/03/26 09:48:22;;;;;;;35.20;23.70;;;14.20;99.90;;;;;;5055989;28;20444;-78
2021/03/26 09:50:58;;;;;;;39.27;26.53;;;14.30;99.90;;;;;;5055894;28;20538;-78
2021/03/26 09:53:25;;;;;;;42.13;27.63;;;14.30;99.90;;;;;;5055719;28;20788;-78
2021/03/26 09:55:54;;;;;;;40.53;26.80;;;14.30;99.90;;;;;;5051416;28;20551;-78
2021/03/26 09:58:29;;;;;;;37.33;25.30;;;14.40;99.90;;;;;;5055193;28;20854;-80
2021/03/26 10:01:00;;;;;;;40.53;27.93;;;14.50;99.90;;;;;;5055672;28;20654;-78
2021/03/26 10:03:40;;;;;;;43.70;26.40;;;14.60;99.90;;;;;;5055693;28;20444;-78
2021/03/26 10:06:11;;;;;;;35.97;23.63;;;14.70;99.90;;;;;;5055855;28;20450;-78
2021/03/26 10:09:01;;;;;;;33.83;23.60;;;15.00;99.90;;;;;;5055737;28;20587;-78
2021/03/26 10:11:34;;;;;;;34.10;23.20;;;15.30;99.90;;;;;;5055571;28;20450;-78
2021/03/26 10:14:04;;;;;;;35.07;23.23;;;15.70;99.90;;;;;;5055469;28;20842;-79
2021/03/26 10:16:45;;;;;;;36.40;22.30;;;16.10;99.90;;;;;;5054193;28;20484;-78
2021/03/26 10:19:16;;;;;;;34.63;23.73;;;16.50;99.90;;;;;;5052513;28;20854;-79
2021/03/26 10:21:48;;;;;;;38.00;24.53;;;16.90;99.90;;;;;;5055402;28;20503;-79
2021/03/26 10:24:20;;;;;;;37.30;24.10;;;16.90;99.90;;;;;;5055149;28;20878;-79
2021/03/26 10:26:52;;;;;;;38.83;23.93;;;16.90;99.90;;;;;;5055388;28;20451;-79
2021/03/26 10:29:29;;;;;;;38.00;24.97;;;16.80;99.90;;;;;;5055118;28;21030;-78
2021/03/26 10:32:07;;;;;;;40.43;26.20;;;16.60;99.90;;;;;;5055199;28;20455;-79
2021/03/26 10:34:36;;;;;;;36.00;24.50;;;16.40;99.90;;;;;;5036248;28;20448;-78
2021/03/26 10:37:19;;;;;;;38.67;26.63;;;16.40;99.90;;;;;;5047734;28;20789;-79
2021/03/26 10:39:50;;;;;;;41.13;26.43;;;16.40;99.90;;;;;;5052170;28;20946;-79
2021/03/26 10:42:26;;;;;;;35.80;23.67;;;16.50;99.90;;;;;;5052287;28;20942;-78
2021/03/26 10:45:14;;;;;;;37.97;26.47;;;16.70;99.90;;;;;;5054963;28;20471;-79
2021/03/26 10:47:46;;;;;;;39.33;25.90;;;17.10;99.90;;;;;;5053768;28;20449;-79
2021/03/26 10:50:28;;;;;;;30.60;22.13;;;17.40;99.90;;;;;;5055027;28;20503;-76
2021/03/26 10:53:02;;;;;;;31.93;23.07;;;17.70;99.90;;;;;;5054799;28;20440;-76
2021/03/26 10:55:34;;;;;;;36.50;24.07;;;17.90;99.90;;;;;;5054624;28;20977;-76
2021/03/26 10:58:04;;;;;;;35.57;24.17;;;18.20;99.90;;;;;;5054763;28;20567;-76
2021/03/26 11:00:34;;;;;;;34.00;23.60;;;18.40;99.90;;;;;;5051675;28;20476;-76
2021/03/26 11:03:04;;;;;;;33.50;23.23;;;18.50;99.90;;;;;;5054302;28;20452;-76
2021/03/26 11:05:45;;;;;;;30.50;22.20;;;18.50;99.90;;;;;;5054733;28;20444;-76
2021/03/26 11:08:38;;;;;;;36.17;22.80;;;18.60;99.90;;;;;;5054360;28;20448;-76
2021/03/26 11:11:14;;;;;;;33.10;21.40;;;18.60;99.90;;;;;;5054471;28;20468;-76
2021/03/26 11:14:04;;;;;;;30.70;21.50;;;18.70;99.90;;;;;;5054297;28;20930;-76
2021/03/26 11:16:35;;;;;;;35.93;23.43;;;18.80;99.90;;;;;;5054264;28;21016;-76
2021/03/26 11:19:06;;;;;;;33.60;20.90;;;18.80;99.90;;;;;;5054279;28;20533;-76
2021/03/26 11:21:36;;;;;;;31.30;20.60;;;18.90;99.90;;;;;;5054362;28;20515;-76
2021/03/26 11:24:07;;;;;;;38.77;23.07;;;18.90;99.90;;;;;;5054049;28;20468;-76
2021/03/26 11:26:36;;;;;;;33.37;22.50;;;18.80;99.90;;;;;;5054077;28;20455;-76
2021/03/26 11:29:13;;;;;;;32.90;22.93;;;18.90;99.90;;;;;;5053927;28;20445;-76
2021/03/26 11:31:49;;;;;;;32.27;22.93;;;18.90;99.90;;;;;;5053913;28;20498;-76
2021/03/26 11:34:28;;;;;;;34.57;23.80;;;18.90;99.90;;;;;;5053886;28;21015;-76
2021/03/26 11:37:00;;;;;;;32.30;22.07;;;18.90;99.90;;;;;;5053799;28;20952;-76
2021/03/26 11:39:32;;;;;;;33.33;21.70;;;19.00;99.90;;;;;;5053725;28;20474;-76
2021/03/26 11:42:23;;;;;;;36.03;23.63;;;19.00;99.90;;;;;;5053866;28;20484;-76
2021/03/26 11:44:55;;;;;;;36.67;23.43;;;19.00;99.90;;;;;;5053757;28;20886;-76
2021/03/26 11:47:34;;;;;;;31.97;22.97;;;19.00;99.90;;;;;;5053735;28;20463;-76
2021/03/26 11:50:05;;;;;;;29.87;22.13;;;19.10;99.90;;;;;;5053561;28;20479;-76
2021/03/26 11:52:40;;;;;;;33.40;21.67;;;19.40;99.90;;;;;;5053775;28;20456;-76
2021/03/26 11:55:13;;;;;;;35.03;21.73;;;19.60;99.90;;;;;;5053397;28;20468;-76
2021/03/26 11:57:45;;;;;;;37.90;23.20;;;19.60;99.90;;;;;;5053371;28;20476;-76
2021/03/26 12:00:18;;;;;;;32.10;22.67;;;19.50;99.90;;;;;;5053248;28;20510;-76
2021/03/26 12:02:55;;;;;;;36.20;22.93;;;19.50;99.90;;;;;;5053565;28;20448;-76
2021/03/26 12:05:36;;;;;;;31.60;21.57;;;19.60;99.90;;;;;;5038729;28;20444;-76
2021/03/26 12:08:08;;;;;;;34.60;21.90;;;19.60;99.90;;;;;;5052998;28;20502;-76
2021/03/26 12:10:37;;;;;;;35.97;22.77;;;19.60;99.90;;;;;;5052813;28;20448;-76
2021/03/26 12:13:11;;;;;;;30.23;20.60;;;19.60;99.90;;;;;;5052727;28;20543;-76
2021/03/26 12:15:43;;;;;;;36.70;22.67;;;19.70;99.90;;;;;;5052971;28;20537;-76
2021/03/26 12:18:17;;;;;;;30.43;20.73;;;19.80;99.90;;;;;;5052881;28;20535;-76
2021/03/26 12:20:45;;;;;;;29.90;20.47;;;19.90;99.90;;;;;;5051758;28;20522;-76
2021/03/26 12:23:25;;;;;;;33.80;22.80;;;19.90;99.90;;;;;;5036600;28;20452;-76
2021/03/26 12:25:57;;;;;;;32.40;22.57;;;19.80;99.90;;;;;;5052805;28;20448;-76
2021/03/26 12:28:39;;;;;;;33.20;22.53;;;19.60;99.90;;;;;;5052994;28;20475;-76
2021/03/26 12:31:16;;;;;;;36.80;22.30;;;19.30;99.90;;;;;;5052559;28;21053;-76
2021/03/26 12:33:48;;;;;;;30.70;21.03;;;19.10;99.90;;;;;;5052554;28;20448;-76
2021/03/26 12:36:19;;;;;;;29.10;19.73;;;19.10;99.90;;;;;;5052607;28;20494;-76
2021/03/26 12:38:55;;;;;;;28.80;19.93;;;19.00;99.90;;;;;;5052760;28;20443;-77
2021/03/26 12:41:31;;;;;;;32.90;22.97;;;19.10;99.90;;;;;;5052501;28;20476;-76
2021/03/26 12:44:05;;;;;;;31.60;22.37;;;19.20;99.90;;;;;;5052255;28;21006;-76
2021/03/26 12:47:13;;;;;;;30.03;21.93;;;19.40;99.90;;;;;;5052445;28;20483;-76
2021/03/26 12:49:44;;;;;;;35.37;23.70;;;19.60;99.90;;;;;;5039923;28;20449;-76
2021/03/26 12:52:28;;;;;;;36.23;23.50;;;19.70;99.90;;;;;;5052354;28;20456;-76
2021/03/26 12:55:04;;;;;;;30.40;21.87;;;19.60;99.90;;;;;;5052069;28;20472;-76
2021/03/26 12:57:34;;;;;;;31.10;21.57;;;19.30;99.90;;;;;;5052537;28;20483;-77
2021/03/26 13:00:06;;;;;;;32.23;23.70;;;19.10;99.90;;;;;;5052355;28;20998;-76
2021/03/26 13:02:37;;;;;;;32.37;23.23;;;19.00;99.90;;;;;;5052587;28;20558;-76
2021/03/26 13:05:09;;;;;;;35.30;25.00;;;18.80;99.90;;;;;;5052334;28;20487;-76
2021/03/26 13:07:42;;;;;;;30.70;21.17;;;18.70;99.90;;;;;;5052543;28;20475;-76
2021/03/26 13:10:27;;;;;;;29.20;20.93;;;18.50;99.90;;;;;;5051712;28;20484;-76
2021/03/26 13:13:02;;;;;;;37.30;22.90;;;18.50;99.90;;;;;;5052357;28;20811;-76
2021/03/26 13:15:33;;;;;;;31.30;21.73;;;18.50;99.90;;;;;;5052225;28;20539;-76
2021/03/26 13:18:04;;;;;;;29.80;22.17;;;18.50;99.90;;;;;;5052395;28;20480;-76
2021/03/26 13:20:47;;;;;;;32.63;23.33;;;18.50;99.90;;;;;;5052154;28;20472;-76